sensor_id;sensor_type;location;lat;lon;timestamp;temperature;humidity
21778;DHT22;11050;52.222;20.916;2022-10-16T00:01:17;14.20;99.90
21778;DHT22;11050;52.222;20.916;2022-10-16T00:03:45;14.20;99.90
21778;DHT22;11050;52.222;20.916;2022-10-16T00:06:12;14.20;99.90
21778;DHT22;11050;52.222;20.916;2022-10-16T00:08:39;14.30;99.90
21778;DHT22;11050;52.222;20.916;2022-10-16T00:11:10;14.30;99.90
21778;DHT22;11050;52.222;20.916;2022-10-16T00:13:43;14.30;99.90
21778;DHT22;11050;52.222;20.916;2022-10-16T00:16:11;14.30;99.90
21778;DHT22;11050;52.222;20.916;2022-10-16T00:18:38;14.40;99.90
21778;DHT22;11050;52.222;20.916;2022-10-16T00:21:10;14.40;99.90
21778;DHT22;11050;52.222;20.916;2022-10-16T00:23:39;14.40;99.90
21778;DHT22;11050;52.222;20.916;2022-10-16T00:26:08;14.50;99.90
21778;DHT22;11050;52.222;20.916;2022-10-16T00:28:36;14.50;99.90
21778;DHT22;11050;52.222;20.916;2022-10-16T00:31:07;14.50;99.90
21778;DHT22;11050;52.222;20.916;2022-10-16T00:33:36;14.50;99.90
21778;DHT22;11050;52.222;20.916;2022-10-16T00:36:05;14.60;99.90
21778;DHT22;11050;52.222;20.916;2022-10-16T00:38:31;14.60;99.90
21778;DHT22;11050;52.222;20.916;2022-10-16T00:40:57;14.60;99.90
21778;DHT22;11050;52.222;20.916;2022-10-16T00:46:15;14.50;99.90
21778;DHT22;11050;52.222;20.916;2022-10-16T00:49:05;14.50;99.90
21778;DHT22;11050;52.222;20.916;2022-10-16T00:51:42;14.40;99.90
21778;DHT22;11050;52.222;20.916;2022-10-16T00:54:25;14.40;99.90
21778;DHT22;11050;52.222;20.916;2022-10-16T00:56:54;14.30;99.90
21778;DHT22;11050;52.222;20.916;2022-10-16T00:59:32;14.30;99.90
21778;DHT22;11050;52.222;20.916;2022-10-16T01:02:01;14.30;99.90
21778;DHT22;11050;52.222;20.916;2022-10-16T01:04:34;14.20;99.90
21778;DHT22;11050;52.222;20.916;2022-10-16T01:13:06;14.10;99.90
21778;DHT22;11050;52.222;20.916;2022-10-16T01:16:00;14.10;99.90
21778;DHT22;11050;52.222;20.916;2022-10-16T01:18:46;14.20;99.90
21778;DHT22;11050;52.222;20.916;2022-10-16T01:21:22;14.10;99.90
21778;DHT22;11050;52.222;20.916;2022-10-16T01:30:21;14.10;99.90
21778;DHT22;11050;52.222;20.916;2022-10-16T01:33:01;14.10;99.90
21778;DHT22;11050;52.222;20.916;2022-10-16T01:35:40;14.00;99.90
21778;DHT22;11050;52.222;20.916;2022-10-16T01:38:24;14.00;99.90
21778;DHT22;11050;52.222;20.916;2022-10-16T01:41:05;14.00;99.90
21778;DHT22;11050;52.222;20.916;2022-10-16T01:43:42;14.00;99.90
21778;DHT22;11050;52.222;20.916;2022-10-16T01:46:13;14.00;99.90
21778;DHT22;11050;52.222;20.916;2022-10-16T01:48:43;14.00;99.90
21778;DHT22;11050;52.222;20.916;2022-10-16T01:51:14;14.00;99.90
21778;DHT22;11050;52.222;20.916;2022-10-16T01:53:43;14.00;99.90
21778;DHT22;11050;52.222;20.916;2022-10-16T01:56:15;13.90;99.90
21778;DHT22;11050;52.222;20.916;2022-10-16T01:59:08;13.90;99.90
21778;DHT22;11050;52.222;20.916;2022-10-16T02:01:39;13.90;99.90
21778;DHT22;11050;52.222;20.916;2022-10-16T02:07:01;13.90;99.90
21778;DHT22;11050;52.222;20.916;2022-10-16T02:09:29;13.80;99.90
21778;DHT22;11050;52.222;20.916;2022-10-16T02:11:57;13.80;99.90
21778;DHT22;11050;52.222;20.916;2022-10-16T02:14:28;13.80;99.90
21778;DHT22;11050;52.222;20.916;2022-10-16T02:16:54;13.80;99.90
21778;DHT22;11050;52.222;20.916;2022-10-16T02:19:21;13.70;99.90
21778;DHT22;11050;52.222;20.916;2022-10-16T02:21:54;13.70;99.90
21778;DHT22;11050;52.222;20.916;2022-10-16T02:30:39;13.70;99.90
21778;DHT22;11050;52.222;20.916;2022-10-16T02:33:11;13.70;99.90
21778;DHT22;11050;52.222;20.916;2022-10-16T02:35:43;13.70;99.90
21778;DHT22;11050;52.222;20.916;2022-10-16T02:38:12;13.70;99.90
21778;DHT22;11050;52.222;20.916;2022-10-16T02:40:40;13.60;99.90
21778;DHT22;11050;52.222;20.916;2022-10-16T02:43:08;13.60;99.90
21778;DHT22;11050;52.222;20.916;2022-10-16T02:45:35;13.60;99.90
21778;DHT22;11050;52.222;20.916;2022-10-16T02:48:01;13.60;99.90
21778;DHT22;11050;52.222;20.916;2022-10-16T02:50:26;13.60;99.90
21778;DHT22;11050;52.222;20.916;2022-10-16T02:52:52;13.60;99.90
21778;DHT22;11050;52.222;20.916;2022-10-16T02:55:18;13.60;99.90
21778;DHT22;11050;52.222;20.916;2022-10-16T02:57:44;13.60;99.90
21778;DHT22;11050;52.222;20.916;2022-10-16T03:00:13;13.50;99.90
21778;DHT22;11050;52.222;20.916;2022-10-16T03:02:41;13.60;99.90
21778;DHT22;11050;52.222;20.916;2022-10-16T03:05:07;13.60;99.90
21778;DHT22;11050;52.222;20.916;2022-10-16T03:07:34;13.60;99.90
21778;DHT22;11050;52.222;20.916;2022-10-16T03:10:00;13.60;99.90
21778;DHT22;11050;52.222;20.916;2022-10-16T03:12:27;13.60;99.90
21778;DHT22;11050;52.222;20.916;2022-10-16T03:14:53;13.60;99.90
21778;DHT22;11050;52.222;20.916;2022-10-16T03:17:19;13.60;99.90
21778;DHT22;11050;52.222;20.916;2022-10-16T03:19:44;13.60;99.90
21778;DHT22;11050;52.222;20.916;2022-10-16T03:22:10;13.60;99.90
21778;DHT22;11050;52.222;20.916;2022-10-16T03:24:36;13.60;99.90
21778;DHT22;11050;52.222;20.916;2022-10-16T03:27:02;13.60;99.90
21778;DHT22;11050;52.222;20.916;2022-10-16T03:29:28;13.60;99.90
21778;DHT22;11050;52.222;20.916;2022-10-16T03:31:55;13.60;99.90
21778;DHT22;11050;52.222;20.916;2022-10-16T03:34:21;13.60;99.90
21778;DHT22;11050;52.222;20.916;2022-10-16T03:36:48;13.60;99.90
21778;DHT22;11050;52.222;20.916;2022-10-16T03:39:13;13.60;99.90
21778;DHT22;11050;52.222;20.916;2022-10-16T03:41:39;13.50;99.90
21778;DHT22;11050;52.222;20.916;2022-10-16T03:44:05;13.50;99.90
21778;DHT22;11050;52.222;20.916;2022-10-16T03:46:31;13.50;99.90
21778;DHT22;11050;52.222;20.916;2022-10-16T03:48:57;13.50;99.90
21778;DHT22;11050;52.222;20.916;2022-10-16T03:51:23;13.50;99.90
21778;DHT22;11050;52.222;20.916;2022-10-16T03:53:48;13.50;99.90
21778;DHT22;11050;52.222;20.916;2022-10-16T03:56:14;13.50;99.90
21778;DHT22;11050;52.222;20.916;2022-10-16T03:58:40;13.50;99.90
21778;DHT22;11050;52.222;20.916;2022-10-16T04:01:06;13.40;99.90
21778;DHT22;11050;52.222;20.916;2022-10-16T04:03:32;13.40;99.90
21778;DHT22;11050;52.222;20.916;2022-10-16T04:05:57;13.30;99.90
21778;DHT22;11050;52.222;20.916;2022-10-16T04:08:23;13.30;99.90
21778;DHT22;11050;52.222;20.916;2022-10-16T04:10:49;13.20;99.90
21778;DHT22;11050;52.222;20.916;2022-10-16T04:13:14;13.20;99.90
21778;DHT22;11050;52.222;20.916;2022-10-16T04:15:40;13.20;99.90
21778;DHT22;11050;52.222;20.916;2022-10-16T04:18:06;13.20;99.90
21778;DHT22;11050;52.222;20.916;2022-10-16T04:20:33;13.10;99.90
21778;DHT22;11050;52.222;20.916;2022-10-16T04:22:59;13.10;99.90
21778;DHT22;11050;52.222;20.916;2022-10-16T04:25:25;13.20;99.90
21778;DHT22;11050;52.222;20.916;2022-10-16T04:27:53;13.20;99.90
21778;DHT22;11050;52.222;20.916;2022-10-16T04:30:19;13.10;99.90
21778;DHT22;11050;52.222;20.916;2022-10-16T04:32:50;13.20;99.90
21778;DHT22;11050;52.222;20.916;2022-10-16T04:35:17;13.10;99.90
21778;DHT22;11050;52.222;20.916;2022-10-16T04:37:44;13.20;99.90
21778;DHT22;11050;52.222;20.916;2022-10-16T04:40:10;13.10;99.90
21778;DHT22;11050;52.222;20.916;2022-10-16T04:42:36;13.10;99.90
21778;DHT22;11050;52.222;20.916;2022-10-16T04:45:03;13.10;99.90
21778;DHT22;11050;52.222;20.916;2022-10-16T04:47:30;13.00;99.90
21778;DHT22;11050;52.222;20.916;2022-10-16T04:49:56;13.00;99.90
21778;DHT22;11050;52.222;20.916;2022-10-16T04:52:22;12.90;99.90
21778;DHT22;11050;52.222;20.916;2022-10-16T04:54:50;12.90;99.90
21778;DHT22;11050;52.222;20.916;2022-10-16T04:57:16;12.80;99.90
21778;DHT22;11050;52.222;20.916;2022-10-16T04:59:42;12.80;99.90
21778;DHT22;11050;52.222;20.916;2022-10-16T05:02:08;12.70;99.90
21778;DHT22;11050;52.222;20.916;2022-10-16T05:04:34;12.60;99.90
21778;DHT22;11050;52.222;20.916;2022-10-16T05:07:00;12.60;99.90
21778;DHT22;11050;52.222;20.916;2022-10-16T05:09:26;12.50;99.90
21778;DHT22;11050;52.222;20.916;2022-10-16T05:11:52;12.50;99.90
21778;DHT22;11050;52.222;20.916;2022-10-16T05:14:18;12.50;99.90
21778;DHT22;11050;52.222;20.916;2022-10-16T05:16:44;12.40;99.90
21778;DHT22;11050;52.222;20.916;2022-10-16T05:19:10;12.40;99.90
21778;DHT22;11050;52.222;20.916;2022-10-16T05:21:35;12.30;99.90
21778;DHT22;11050;52.222;20.916;2022-10-16T05:24:01;12.30;99.90
21778;DHT22;11050;52.222;20.916;2022-10-16T05:26:27;12.30;99.90
21778;DHT22;11050;52.222;20.916;2022-10-16T05:28:53;12.30;99.90
21778;DHT22;11050;52.222;20.916;2022-10-16T05:31:18;12.30;99.90
21778;DHT22;11050;52.222;20.916;2022-10-16T05:33:44;12.20;99.90
21778;DHT22;11050;52.222;20.916;2022-10-16T05:36:10;12.20;99.90
21778;DHT22;11050;52.222;20.916;2022-10-16T05:38:36;12.20;99.90
21778;DHT22;11050;52.222;20.916;2022-10-16T05:41:04;12.20;99.90
21778;DHT22;11050;52.222;20.916;2022-10-16T05:43:31;12.20;99.90
21778;DHT22;11050;52.222;20.916;2022-10-16T05:46:03;12.10;99.90
21778;DHT22;11050;52.222;20.916;2022-10-16T05:48:31;12.10;99.90
21778;DHT22;11050;52.222;20.916;2022-10-16T05:51:02;12.10;99.90
21778;DHT22;11050;52.222;20.916;2022-10-16T05:53:31;12.10;99.90
21778;DHT22;11050;52.222;20.916;2022-10-16T05:55:59;12.20;99.90
21778;DHT22;11050;52.222;20.916;2022-10-16T05:58:27;12.20;99.90
21778;DHT22;11050;52.222;20.916;2022-10-16T06:01:00;12.20;99.90
21778;DHT22;11050;52.222;20.916;2022-10-16T06:03:32;12.20;99.90
21778;DHT22;11050;52.222;20.916;2022-10-16T06:05:58;12.20;99.90
21778;DHT22;11050;52.222;20.916;2022-10-16T06:08:25;12.30;99.90
21778;DHT22;11050;52.222;20.916;2022-10-16T06:11:04;12.20;99.90
21778;DHT22;11050;52.222;20.916;2022-10-16T06:13:32;12.30;99.90
21778;DHT22;11050;52.222;20.916;2022-10-16T06:15:59;12.30;99.90
21778;DHT22;11050;52.222;20.916;2022-10-16T06:18:27;12.30;99.90
21778;DHT22;11050;52.222;20.916;2022-10-16T06:20:54;12.40;99.90
21778;DHT22;11050;52.222;20.916;2022-10-16T06:23:21;12.40;99.90
21778;DHT22;11050;52.222;20.916;2022-10-16T06:25:47;12.50;99.90
21778;DHT22;11050;52.222;20.916;2022-10-16T06:28:14;12.60;99.90
21778;DHT22;11050;52.222;20.916;2022-10-16T06:30:40;12.60;99.90
21778;DHT22;11050;52.222;20.916;2022-10-16T06:33:09;12.70;99.90
21778;DHT22;11050;52.222;20.916;2022-10-16T06:35:36;12.80;99.90
21778;DHT22;11050;52.222;20.916;2022-10-16T06:38:02;12.90;99.90
21778;DHT22;11050;52.222;20.916;2022-10-16T06:40:27;12.90;99.90
21778;DHT22;11050;52.222;20.916;2022-10-16T06:42:55;13.00;99.90
21778;DHT22;11050;52.222;20.916;2022-10-16T06:45:20;13.10;99.90
21778;DHT22;11050;52.222;20.916;2022-10-16T06:47:46;13.20;99.90
21778;DHT22;11050;52.222;20.916;2022-10-16T06:50:12;13.30;99.90
21778;DHT22;11050;52.222;20.916;2022-10-16T06:52:38;13.40;99.90
21778;DHT22;11050;52.222;20.916;2022-10-16T06:55:03;13.50;99.90
21778;DHT22;11050;52.222;20.916;2022-10-16T06:57:30;13.70;99.90
21778;DHT22;11050;52.222;20.916;2022-10-16T06:59:55;13.80;99.90
21778;DHT22;11050;52.222;20.916;2022-10-16T07:02:21;14.00;99.90
21778;DHT22;11050;52.222;20.916;2022-10-16T07:04:47;14.10;99.90
21778;DHT22;11050;52.222;20.916;2022-10-16T07:07:12;14.20;99.90
21778;DHT22;11050;52.222;20.916;2022-10-16T07:09:38;14.40;99.90
21778;DHT22;11050;52.222;20.916;2022-10-16T07:12:05;14.40;99.90
21778;DHT22;11050;52.222;20.916;2022-10-16T07:14:31;14.50;99.90
21778;DHT22;11050;52.222;20.916;2022-10-16T07:16:56;14.50;99.90
21778;DHT22;11050;52.222;20.916;2022-10-16T07:19:22;14.50;99.90
21778;DHT22;11050;52.222;20.916;2022-10-16T07:21:48;14.60;99.90
21778;DHT22;11050;52.222;20.916;2022-10-16T07:24:15;14.60;99.90
21778;DHT22;11050;52.222;20.916;2022-10-16T07:26:43;14.60;99.90
21778;DHT22;11050;52.222;20.916;2022-10-16T07:29:15;14.70;99.90
21778;DHT22;11050;52.222;20.916;2022-10-16T07:31:43;14.70;99.90
21778;DHT22;11050;52.222;20.916;2022-10-16T07:34:11;14.80;99.90
21778;DHT22;11050;52.222;20.916;2022-10-16T07:36:38;14.80;99.90
21778;DHT22;11050;52.222;20.916;2022-10-16T07:39:04;14.90;99.90
21778;DHT22;11050;52.222;20.916;2022-10-16T07:41:30;14.90;99.90
21778;DHT22;11050;52.222;20.916;2022-10-16T07:43:58;15.00;99.90
21778;DHT22;11050;52.222;20.916;2022-10-16T07:46:27;15.10;99.90
21778;DHT22;11050;52.222;20.916;2022-10-16T07:48:54;15.30;99.90
21778;DHT22;11050;52.222;20.916;2022-10-16T07:51:22;15.40;99.90
21778;DHT22;11050;52.222;20.916;2022-10-16T07:53:49;15.50;99.90
21778;DHT22;11050;52.222;20.916;2022-10-16T07:56:17;15.70;99.90
21778;DHT22;11050;52.222;20.916;2022-10-16T07:58:44;15.90;99.90
21778;DHT22;11050;52.222;20.916;2022-10-16T08:01:13;16.00;99.90
21778;DHT22;11050;52.222;20.916;2022-10-16T08:03:58;16.20;99.90
21778;DHT22;11050;52.222;20.916;2022-10-16T08:06:24;16.40;99.90
21778;DHT22;11050;52.222;20.916;2022-10-16T08:08:49;16.60;99.90
21778;DHT22;11050;52.222;20.916;2022-10-16T08:11:15;16.70;99.90
21778;DHT22;11050;52.222;20.916;2022-10-16T08:13:41;16.80;99.90
21778;DHT22;11050;52.222;20.916;2022-10-16T08:16:08;16.90;99.90
21778;DHT22;11050;52.222;20.916;2022-10-16T08:18:36;17.00;99.90
21778;DHT22;11050;52.222;20.916;2022-10-16T08:21:04;17.10;99.90
21778;DHT22;11050;52.222;20.916;2022-10-16T08:23:32;17.20;99.90
21778;DHT22;11050;52.222;20.916;2022-10-16T08:26:05;17.20;99.90
21778;DHT22;11050;52.222;20.916;2022-10-16T08:28:32;17.20;99.90
21778;DHT22;11050;52.222;20.916;2022-10-16T08:31:25;17.30;99.90
21778;DHT22;11050;52.222;20.916;2022-10-16T08:33:52;17.40;99.90
21778;DHT22;11050;52.222;20.916;2022-10-16T08:36:18;17.40;99.90
21778;DHT22;11050;52.222;20.916;2022-10-16T08:38:47;17.50;99.90
21778;DHT22;11050;52.222;20.916;2022-10-16T08:44:21;17.60;99.90
21778;DHT22;11050;52.222;20.916;2022-10-16T08:50:29;17.80;99.90
21778;DHT22;11050;52.222;20.916;2022-10-16T08:52:57;17.80;99.90
21778;DHT22;11050;52.222;20.916;2022-10-16T08:55:45;17.90;99.90
21778;DHT22;11050;52.222;20.916;2022-10-16T08:58:23;18.00;99.90
21778;DHT22;11050;52.222;20.916;2022-10-16T09:01:04;18.10;99.90
21778;DHT22;11050;52.222;20.916;2022-10-16T09:06:46;18.30;99.90
21778;DHT22;11050;52.222;20.916;2022-10-16T09:20:26;18.60;99.90
21778;DHT22;11050;52.222;20.916;2022-10-16T09:23:26;18.70;99.90
21778;DHT22;11050;52.222;20.916;2022-10-16T09:25:54;18.70;99.90
21778;DHT22;11050;52.222;20.916;2022-10-16T09:28:22;18.90;99.90
21778;DHT22;11050;52.222;20.916;2022-10-16T09:30:48;18.90;99.90
21778;DHT22;11050;52.222;20.916;2022-10-16T09:33:16;19.10;99.90
21778;DHT22;11050;52.222;20.916;2022-10-16T09:35:47;19.10;99.90
21778;DHT22;11050;52.222;20.916;2022-10-16T09:38:41;19.20;99.90
21778;DHT22;11050;52.222;20.916;2022-10-16T09:43:48;19.50;99.90
21778;DHT22;11050;52.222;20.916;2022-10-16T09:46:34;19.50;99.90
21778;DHT22;11050;52.222;20.916;2022-10-16T09:49:23;19.60;99.90
21778;DHT22;11050;52.222;20.916;2022-10-16T09:51:51;19.60;99.90
21778;DHT22;11050;52.222;20.916;2022-10-16T09:54:29;19.60;99.90
21778;DHT22;11050;52.222;20.916;2022-10-16T09:57:04;19.70;99.90
21778;DHT22;11050;52.222;20.916;2022-10-16T09:59:47;19.80;99.90
21778;DHT22;11050;52.222;20.916;2022-10-16T10:02:16;20.00;99.90
21778;DHT22;11050;52.222;20.916;2022-10-16T10:04:51;20.10;99.90
21778;DHT22;11050;52.222;20.916;2022-10-16T10:07:33;20.10;99.90
21778;DHT22;11050;52.222;20.916;2022-10-16T10:10:05;20.20;99.90
21778;DHT22;11050;52.222;20.916;2022-10-16T10:12:45;20.20;99.90
21778;DHT22;11050;52.222;20.916;2022-10-16T10:15:11;20.40;99.90
21778;DHT22;11050;52.222;20.916;2022-10-16T10:17:47;20.40;99.90
21778;DHT22;11050;52.222;20.916;2022-10-16T10:22:54;20.60;99.90
21778;DHT22;11050;52.222;20.916;2022-10-16T10:28:33;20.70;99.90
21778;DHT22;11050;52.222;20.916;2022-10-16T10:31:33;20.80;99.90
21778;DHT22;11050;52.222;20.916;2022-10-16T10:36:39;20.80;99.90
21778;DHT22;11050;52.222;20.916;2022-10-16T10:39:20;20.80;99.90
21778;DHT22;11050;52.222;20.916;2022-10-16T10:42:09;20.80;99.90
21778;DHT22;11050;52.222;20.916;2022-10-16T10:45:16;20.80;99.90
21778;DHT22;11050;52.222;20.916;2022-10-16T10:50:57;20.70;99.90
21778;DHT22;11050;52.222;20.916;2022-10-16T10:53:55;20.60;99.90
21778;DHT22;11050;52.222;20.916;2022-10-16T10:56:52;20.60;99.90
21778;DHT22;11050;52.222;20.916;2022-10-16T11:02:22;20.70;99.90
21778;DHT22;11050;52.222;20.916;2022-10-16T11:08:09;20.70;99.90
21778;DHT22;11050;52.222;20.916;2022-10-16T11:10:52;20.70;99.90
21778;DHT22;11050;52.222;20.916;2022-10-16T11:13:54;20.70;99.90
21778;DHT22;11050;52.222;20.916;2022-10-16T11:16:29;20.70;99.90
21778;DHT22;11050;52.222;20.916;2022-10-16T11:22:11;20.70;99.90
21778;DHT22;11050;52.222;20.916;2022-10-16T11:24:48;20.80;99.90
21778;DHT22;11050;52.222;20.916;2022-10-16T11:27:25;21.00;99.90
21778;DHT22;11050;52.222;20.916;2022-10-16T11:30:16;21.20;99.90
21778;DHT22;11050;52.222;20.916;2022-10-16T11:35:57;21.60;99.90
21778;DHT22;11050;52.222;20.916;2022-10-16T11:44:38;21.60;99.90
21778;DHT22;11050;52.222;20.916;2022-10-16T11:49:57;21.70;99.90
21778;DHT22;11050;52.222;20.916;2022-10-16T11:52:33;21.90;99.90
21778;DHT22;11050;52.222;20.916;2022-10-16T11:55:17;22.10;99.20
21778;DHT22;11050;52.222;20.916;2022-10-16T11:58:27;22.10;98.70
21778;DHT22;11050;52.222;20.916;2022-10-16T12:03:42;22.10;98.90
21778;DHT22;11050;52.222;20.916;2022-10-16T12:06:31;22.10;98.80
21778;DHT22;11050;52.222;20.916;2022-10-16T12:09:03;22.00;98.60
21778;DHT22;11050;52.222;20.916;2022-10-16T12:14:07;22.00;98.60
21778;DHT22;11050;52.222;20.916;2022-10-16T12:16:59;22.00;98.60
21778;DHT22;11050;52.222;20.916;2022-10-16T12:19:43;22.00;98.50
21778;DHT22;11050;52.222;20.916;2022-10-16T12:22:17;22.10;98.50
21778;DHT22;11050;52.222;20.916;2022-10-16T12:24:44;22.10;97.60
21778;DHT22;11050;52.222;20.916;2022-10-16T12:27:39;22.10;97.60
21778;DHT22;11050;52.222;20.916;2022-10-16T12:30:06;22.00;97.90
21778;DHT22;11050;52.222;20.916;2022-10-16T12:32:37;21.90;97.70
21778;DHT22;11050;52.222;20.916;2022-10-16T12:35:06;21.80;97.80
21778;DHT22;11050;52.222;20.916;2022-10-16T12:37:51;21.80;98.00
21778;DHT22;11050;52.222;20.916;2022-10-16T12:40:29;21.80;98.30
21778;DHT22;11050;52.222;20.916;2022-10-16T12:42:57;21.70;98.20
21778;DHT22;11050;52.222;20.916;2022-10-16T12:45:25;21.60;98.70
21778;DHT22;11050;52.222;20.916;2022-10-16T12:47:55;21.50;98.80
21778;DHT22;11050;52.222;20.916;2022-10-16T12:50:28;21.30;99.80
21778;DHT22;11050;52.222;20.916;2022-10-16T12:53:00;21.20;99.90
21778;DHT22;11050;52.222;20.916;2022-10-16T12:55:34;21.10;99.90
21778;DHT22;11050;52.222;20.916;2022-10-16T13:00:54;20.90;99.90
21778;DHT22;11050;52.222;20.916;2022-10-16T13:04:00;20.70;99.90
21778;DHT22;11050;52.222;20.916;2022-10-16T13:07:11;20.60;99.90
21778;DHT22;11050;52.222;20.916;2022-10-16T13:10:25;20.40;99.90
21778;DHT22;11050;52.222;20.916;2022-10-16T13:13:21;20.30;99.90
21778;DHT22;11050;52.222;20.916;2022-10-16T13:25:08;20.00;99.90
21778;DHT22;11050;52.222;20.916;2022-10-16T13:27:54;19.90;99.90
21778;DHT22;11050;52.222;20.916;2022-10-16T13:30:42;19.90;99.90
21778;DHT22;11050;52.222;20.916;2022-10-16T13:33:16;19.80;99.90
21778;DHT22;11050;52.222;20.916;2022-10-16T13:35:55;19.80;99.90
21778;DHT22;11050;52.222;20.916;2022-10-16T13:38:27;19.70;99.90
21778;DHT22;11050;52.222;20.916;2022-10-16T13:41:13;19.60;99.90
21778;DHT22;11050;52.222;20.916;2022-10-16T13:43:48;19.60;99.90
21778;DHT22;11050;52.222;20.916;2022-10-16T13:46:17;19.60;99.90
21778;DHT22;11050;52.222;20.916;2022-10-16T13:48:45;19.60;99.90
21778;DHT22;11050;52.222;20.916;2022-10-16T13:51:22;19.60;99.90
21778;DHT22;11050;52.222;20.916;2022-10-16T13:53:48;19.60;99.90
21778;DHT22;11050;52.222;20.916;2022-10-16T13:56:17;19.60;99.90
21778;DHT22;11050;52.222;20.916;2022-10-16T13:58:45;19.60;99.90
21778;DHT22;11050;52.222;20.916;2022-10-16T14:01:26;19.70;99.90
21778;DHT22;11050;52.222;20.916;2022-10-16T14:04:05;19.70;99.90
21778;DHT22;11050;52.222;20.916;2022-10-16T14:06:35;19.70;99.90
21778;DHT22;11050;52.222;20.916;2022-10-16T14:09:14;19.70;99.90
21778;DHT22;11050;52.222;20.916;2022-10-16T14:11:49;19.70;99.90
21778;DHT22;11050;52.222;20.916;2022-10-16T14:14:18;19.70;99.90
21778;DHT22;11050;52.222;20.916;2022-10-16T14:16:45;19.70;99.90
21778;DHT22;11050;52.222;20.916;2022-10-16T14:19:22;19.70;99.90
21778;DHT22;11050;52.222;20.916;2022-10-16T14:21:52;19.70;99.90
21778;DHT22;11050;52.222;20.916;2022-10-16T14:24:33;19.70;99.90
21778;DHT22;11050;52.222;20.916;2022-10-16T14:27:01;19.70;99.90
21778;DHT22;11050;52.222;20.916;2022-10-16T14:29:29;19.70;99.90
21778;DHT22;11050;52.222;20.916;2022-10-16T14:32:04;19.70;99.90
21778;DHT22;11050;52.222;20.916;2022-10-16T14:34:33;19.60;99.90
21778;DHT22;11050;52.222;20.916;2022-10-16T14:37:14;19.60;99.90
21778;DHT22;11050;52.222;20.916;2022-10-16T14:39:49;19.60;99.90
21778;DHT22;11050;52.222;20.916;2022-10-16T14:42:20;19.60;99.90
21778;DHT22;11050;52.222;20.916;2022-10-16T14:44:51;19.60;99.90
21778;DHT22;11050;52.222;20.916;2022-10-16T14:47:23;19.60;99.90
21778;DHT22;11050;52.222;20.916;2022-10-16T14:49:52;19.60;99.90
21778;DHT22;11050;52.222;20.916;2022-10-16T14:52:24;19.60;99.90
21778;DHT22;11050;52.222;20.916;2022-10-16T14:54:50;19.60;99.90
21778;DHT22;11050;52.222;20.916;2022-10-16T14:57:22;19.50;99.90
21778;DHT22;11050;52.222;20.916;2022-10-16T14:59:49;19.50;99.90
21778;DHT22;11050;52.222;20.916;2022-10-16T15:04:55;19.50;99.90
21778;DHT22;11050;52.222;20.916;2022-10-16T15:07:22;19.50;99.90
21778;DHT22;11050;52.222;20.916;2022-10-16T15:09:48;19.40;99.90
21778;DHT22;11050;52.222;20.916;2022-10-16T15:12:14;19.40;99.90
21778;DHT22;11050;52.222;20.916;2022-10-16T15:14:40;19.40;99.90
21778;DHT22;11050;52.222;20.916;2022-10-16T15:17:10;19.30;99.90
21778;DHT22;11050;52.222;20.916;2022-10-16T15:19:36;19.20;99.90
21778;DHT22;11050;52.222;20.916;2022-10-16T15:22:02;19.20;99.90
21778;DHT22;11050;52.222;20.916;2022-10-16T15:24:27;19.20;99.90
21778;DHT22;11050;52.222;20.916;2022-10-16T15:26:53;19.20;99.90
21778;DHT22;11050;52.222;20.916;2022-10-16T15:29:19;19.10;99.90
21778;DHT22;11050;52.222;20.916;2022-10-16T15:31:45;19.10;99.90
21778;DHT22;11050;52.222;20.916;2022-10-16T15:34:13;19.10;99.90
21778;DHT22;11050;52.222;20.916;2022-10-16T15:36:39;19.00;99.90
21778;DHT22;11050;52.222;20.916;2022-10-16T15:39:13;19.00;99.90
21778;DHT22;11050;52.222;20.916;2022-10-16T15:41:44;18.90;99.90
21778;DHT22;11050;52.222;20.916;2022-10-16T15:44:19;18.90;99.90
21778;DHT22;11050;52.222;20.916;2022-10-16T15:46:46;18.90;99.90
21778;DHT22;11050;52.222;20.916;2022-10-16T15:49:12;18.80;99.90
21778;DHT22;11050;52.222;20.916;2022-10-16T15:51:39;18.80;99.90
21778;DHT22;11050;52.222;20.916;2022-10-16T15:54:08;18.80;99.90
21778;DHT22;11050;52.222;20.916;2022-10-16T15:56:34;18.70;99.90
21778;DHT22;11050;52.222;20.916;2022-10-16T15:59:02;18.70;99.90
21778;DHT22;11050;52.222;20.916;2022-10-16T16:01:31;18.70;99.90
21778;DHT22;11050;52.222;20.916;2022-10-16T16:03:58;18.70;99.90
21778;DHT22;11050;52.222;20.916;2022-10-16T16:06:23;18.60;99.90
21778;DHT22;11050;52.222;20.916;2022-10-16T16:08:50;18.60;99.90
21778;DHT22;11050;52.222;20.916;2022-10-16T16:11:18;18.50;99.90
21778;DHT22;11050;52.222;20.916;2022-10-16T16:13:44;18.50;99.90
21778;DHT22;11050;52.222;20.916;2022-10-16T16:16:15;18.40;99.90
21778;DHT22;11050;52.222;20.916;2022-10-16T16:18:42;18.40;99.90
21778;DHT22;11050;52.222;20.916;2022-10-16T16:21:12;18.40;99.90
21778;DHT22;11050;52.222;20.916;2022-10-16T16:23:38;18.30;99.90
21778;DHT22;11050;52.222;20.916;2022-10-16T16:26:05;18.20;99.90
21778;DHT22;11050;52.222;20.916;2022-10-16T16:28:40;18.20;99.90
21778;DHT22;11050;52.222;20.916;2022-10-16T16:31:06;18.10;99.90
21778;DHT22;11050;52.222;20.916;2022-10-16T16:33:33;18.10;99.90
21778;DHT22;11050;52.222;20.916;2022-10-16T16:36:01;18.00;99.90
21778;DHT22;11050;52.222;20.916;2022-10-16T16:38:29;18.00;99.90
21778;DHT22;11050;52.222;20.916;2022-10-16T16:40:57;17.90;99.90
21778;DHT22;11050;52.222;20.916;2022-10-16T16:43:24;17.90;99.90
21778;DHT22;11050;52.222;20.916;2022-10-16T16:45:51;17.80;99.90
21778;DHT22;11050;52.222;20.916;2022-10-16T16:48:18;17.80;99.90
21778;DHT22;11050;52.222;20.916;2022-10-16T16:50:44;17.70;99.90
21778;DHT22;11050;52.222;20.916;2022-10-16T16:53:10;17.80;99.90
21778;DHT22;11050;52.222;20.916;2022-10-16T16:55:35;17.70;99.90
21778;DHT22;11050;52.222;20.916;2022-10-16T16:58:01;17.60;99.90
21778;DHT22;11050;52.222;20.916;2022-10-16T17:00:29;17.60;99.90
21778;DHT22;11050;52.222;20.916;2022-10-16T17:02:56;17.50;99.90
21778;DHT22;11050;52.222;20.916;2022-10-16T17:05:22;17.50;99.90
21778;DHT22;11050;52.222;20.916;2022-10-16T17:07:48;17.50;99.90
21778;DHT22;11050;52.222;20.916;2022-10-16T17:10:14;17.40;99.90
21778;DHT22;11050;52.222;20.916;2022-10-16T17:12:40;17.40;99.90
21778;DHT22;11050;52.222;20.916;2022-10-16T17:15:06;17.30;99.90
21778;DHT22;11050;52.222;20.916;2022-10-16T17:17:32;17.30;99.90
21778;DHT22;11050;52.222;20.916;2022-10-16T17:19:58;17.30;99.90